Time;durP1;ratioP1;P1;durP2;ratioP2;P2;SDS_P1;SDS_P2;PMS_P1;PMS_P2;Temp;Humidity;BMP_temperature;BMP_pressure;BME280_temperature;BME280_humidity;BME280_pressure;Samples;Min_cycle;Max_cycle;Signal;HPM_P1;HPM_P2
2022/03/09 00:01:27;;;;;;;;;70.75;55.75;;;;;7.65;48.96;101727.56;5032223;28;49863;-65
2022/03/09 00:03:53;;;;;;;;;72.50;54.75;;;;;7.66;49.14;101724.13;5032492;28;49882;-65
2022/03/09 00:06:18;;;;;;;;;73.25;56.75;;;;;7.45;49.77;101688.31;5032214;28;49994;-64
2022/03/09 00:08:44;;;;;;;;;72.75;55.50;;;;;7.63;49.08;101724.00;5032174;28;49873;-66
2022/03/09 00:11:10;;;;;;;;;75.50;55.50;;;;;7.62;49.03;101725.66;5025866;28;49674;-65
2022/03/09 00:13:35;;;;;;;;;70.50;54.25;;;;;7.50;49.46;101703.28;5032490;28;49730;-64
2022/03/09 00:16:00;;;;;;;;;72.00;55.50;;;;;7.54;49.23;101714.00;5032083;28;49700;-64
2022/03/09 00:18:26;;;;;;;;;71.75;55.25;;;;;7.60;48.86;101729.03;5032057;28;49666;-65
2022/03/09 00:20:51;;;;;;;;;71.00;56.75;;;;;7.58;49.21;101730.69;5013984;28;49878;-65
2022/03/09 00:23:17;;;;;;;;;68.00;55.50;;;;;7.55;49.04;101726.22;5032166;28;50229;-65
2022/03/09 00:25:42;;;;;;;;;67.25;55.00;;;;;7.47;49.53;101723.22;5031873;28;49778;-65
2022/03/09 00:28:07;;;;;;;;;71.50;55.75;;;;;7.03;49.73;101654.88;5031873;28;49931;-65
2022/03/09 00:30:33;;;;;;;;;72.50;56.00;;;;;7.48;49.69;101742.41;5032244;28;49712;-65
2022/03/09 00:32:58;;;;;;;;;71.75;56.00;;;;;7.33;50.16;101719.03;5031932;28;49919;-65
2022/03/09 00:35:24;;;;;;;;;68.50;54.00;;;;;7.20;49.84;101711.44;5031706;28;50476;-65
2022/03/09 00:37:49;;;;;;;;;67.75;54.00;;;;;7.25;50.45;101725.63;5031404;28;49667;-66
2022/03/09 00:40:14;;;;;;;;;71.75;55.75;;;;;7.35;50.45;101742.66;5031715;28;49891;-65
2022/03/09 00:42:40;;;;;;;;;65.50;51.50;;;;;7.28;50.53;101732.72;5032095;28;49794;-66
2022/03/09 00:45:06;;;;;;;;;76.75;57.00;;;;;7.15;50.82;101723.38;5029291;28;51778;-64
2022/03/09 00:47:32;;;;;;;;;69.25;56.25;;;;;7.26;50.76;101745.69;5031607;28;49573;-66
2022/03/09 00:49:57;;;;;;;;;67.25;52.50;;;;;6.69;51.02;101660.13;5031879;28;49764;-65
2022/03/09 00:52:23;;;;;;;;;78.00;59.50;;;;;7.20;50.94;101749.72;5031337;28;49849;-65
2022/03/09 00:54:49;;;;;;;;;73.75;56.50;;;;;7.12;51.24;101744.09;5030968;28;49825;-65
2022/03/09 00:57:14;;;;;;;;;66.00;53.75;;;;;6.90;51.33;101713.41;5031344;28;49831;-65
2022/03/09 00:59:40;;;;;;;;;70.50;55.25;;;;;7.11;51.67;101758.88;5031589;28;49646;-65
2022/03/09 01:02:06;;;;;;;;;70.00;55.50;;;;;6.87;51.90;101732.44;5031481;28;49970;-65
2022/03/09 01:04:34;;;;;;;;;70.75;55.25;;;;;7.06;51.88;101769.91;5031457;28;50468;-66
2022/03/09 01:06:59;;;;;;;;;72.00;55.50;;;;;7.03;51.89;101769.75;5031355;28;50177;-65
2022/03/09 01:09:24;;;;;;;;;73.00;54.75;;;;;6.93;51.71;101757.03;5031110;28;49689;-65
2022/03/09 01:11:50;;;;;;;;;68.25;55.75;;;;;6.59;52.52;101705.72;5030825;28;49903;-65
2022/03/09 01:14:15;;;;;;;;;76.25;56.50;;;;;6.67;52.17;101721.78;5030966;28;50593;-65
2022/03/09 01:16:40;;;;;;;;;69.25;55.00;;;;;6.94;52.00;101782.31;5012145;28;49908;-65
2022/03/09 01:19:06;;;;;;;;;66.00;51.25;;;;;6.83;52.44;101756.56;5031215;28;50040;-64
2022/03/09 01:21:31;;;;;;;;;67.25;53.50;;;;;6.87;52.90;101773.28;5031473;28;49841;-65
2022/03/09 01:23:57;;;;;;;;;74.25;57.25;;;;;6.63;53.00;101732.88;5030734;28;50497;-65
2022/03/09 01:26:22;;;;;;;;;71.00;53.00;;;;;6.85;53.07;101773.22;5031003;28;49883;-65
2022/03/09 01:28:48;;;;;;;;;66.00;52.00;;;;;6.83;53.29;101771.31;5031120;28;50518;-65
2022/03/09 01:31:13;;;;;;;;;68.25;53.75;;;;;6.82;53.46;101778.25;5030218;28;49744;-65
2022/03/09 01:33:38;;;;;;;;;73.00;59.00;;;;;6.72;53.79;101770.78;5030815;28;50586;-65
2022/03/09 01:36:04;;;;;;;;;70.00;53.00;;;;;6.77;53.92;101765.81;5030947;28;49876;-66
2022/03/09 01:38:29;;;;;;;;;72.25;55.50;;;;;6.75;54.25;101767.41;5030837;28;49819;-65
2022/03/09 01:40:55;;;;;;;;;74.00;60.67;;;;;6.74;54.15;101763.91;5031203;28;50168;-65
2022/03/09 01:43:20;;;;;;;;;71.00;57.33;;;;;6.31;53.80;101709.50;5030864;28;49832;-66
2022/03/09 01:45:45;;;;;;;;;74.00;59.33;;;;;6.68;54.43;101763.63;5029728;28;49678;-64
2022/03/09 01:48:11;;;;;;;;;71.33;56.00;;;;;6.68;54.57;101762.72;5030793;28;49946;-68
2022/03/09 01:50:36;;;;;;;;;67.25;50.25;;;;;6.65;54.25;101762.53;5030823;28;50023;-65
2022/03/09 01:53:02;;;;;;;;;75.50;56.25;;;;;6.62;54.56;101760.66;5030184;28;50330;-65
2022/03/09 01:55:27;;;;;;;;;77.00;60.75;;;;;5.88;54.90;101641.09;5030435;28;49732;-64
2022/03/09 01:57:53;;;;;;;;;74.00;58.33;;;;;6.59;55.03;101760.53;5012904;28;50028;-66
2022/03/09 02:00:18;;;;;;;;;77.67;61.00;;;;;6.33;55.17;101712.19;5030923;28;49993;-68
2022/03/09 02:02:44;;;;;;;;;71.67;56.33;;;;;6.16;54.38;101682.59;5030331;28;50587;-64
2022/03/09 02:05:09;;;;;;;;;70.00;57.00;;;;;6.54;55.42;101748.94;5030468;28;49820;-64
2022/03/09 02:10:22;;;;;;;;;73.50;56.75;;;;;6.45;55.73;101743.22;5030770;28;50017;-65
2022/03/09 02:12:48;;;;;;;;;75.67;58.67;;;;;6.47;55.43;101754.66;5030055;28;49882;-65
2022/03/09 02:15:13;;;;;;;;;75.75;58.50;;;;;6.45;55.40;101749.34;5030509;28;49836;-65
2022/03/09 02:17:39;;;;;;;;;73.25;54.50;;;;;6.37;55.51;101737.63;5030762;28;49958;-65
2022/03/09 02:20:04;;;;;;;;;72.33;57.67;;;;;6.42;55.21;101754.41;5030406;28;49971;-65
2022/03/09 02:22:34;;;;;;;;;68.00;54.67;;;;;6.41;55.03;101752.63;5029935;28;49926;-65
2022/03/09 02:25:02;;;;;;;;;71.33;55.33;;;;;6.21;55.38;101720.25;5030125;28;49998;-65
2022/03/09 02:27:28;;;;;;;;;75.67;56.67;;;;;6.24;55.71;101730.84;5030098;28;50136;-65
2022/03/09 02:29:55;;;;;;;;;68.00;55.33;;;;;6.27;55.31;101738.84;5030365;28;49699;-64
2022/03/09 02:32:21;;;;;;;;;76.00;57.67;;;;;6.33;55.25;101753.91;5030050;28;50293;-64
2022/03/09 02:34:47;;;;;;;;;74.25;57.25;;;;;6.27;55.87;101746.69;5030244;28;49779;-64
2022/03/09 02:37:12;;;;;;;;;78.33;59.33;;;;;6.04;56.05;101710.63;5029887;28;49685;-65
2022/03/09 02:39:38;;;;;;;;;77.33;59.00;;;;;5.83;55.31;101681.66;5030269;28;49792;-65
2022/03/09 02:42:03;;;;;;;;;78.67;59.33;;;;;6.27;55.68;101757.09;5029681;28;50814;-64
2022/03/09 02:44:29;;;;;;;;;66.50;53.00;;;;;6.27;56.15;101756.19;5029950;28;49937;-65
2022/03/09 02:46:55;;;;;;;;;75.00;57.00;;;;;5.83;55.65;101693.78;5029964;28;49644;-65
2022/03/09 02:49:20;;;;;;;;;68.50;54.25;;;;;6.23;56.22;101762.06;5030210;28;49562;-65
2022/03/09 02:51:45;;;;;;;;;75.00;53.50;;;;;6.20;56.48;101760.19;5029725;28;50170;-65
2022/03/09 02:54:11;;;;;;;;;74.25;58.00;;;;;6.23;56.58;101762.94;5029796;28;50113;-65
2022/03/09 02:56:36;;;;;;;;;72.33;57.33;;;;;6.08;56.21;101738.66;5029913;28;49777;-65
2022/03/09 02:59:02;;;;;;;;;77.67;59.33;;;;;6.20;56.32;101761.91;5030089;28;49598;-65
2022/03/09 03:01:27;;;;;;;;;65.67;53.33;;;;;6.12;56.05;101758.88;5029607;28;50528;-64
2022/03/09 03:03:53;;;;;;;;;67.00;49.33;;;;;6.15;56.47;101769.44;5029698;28;49784;-65
2022/03/09 03:06:18;;;;;;;;;74.67;59.67;;;;;5.87;56.90;101722.69;5029749;28;49645;-65
2022/03/09 03:08:44;;;;;;;;;74.00;56.00;;;;;6.14;56.38;101775.47;5032206;28;49702;-64
2022/03/09 03:11:10;;;;;;;;;71.00;58.25;;;;;6.12;56.67;101768.41;5033139;28;50608;-64
2022/03/09 03:13:37;;;;;;;;;80.00;58.00;;;;;6.12;56.54;101765.78;5033276;28;49684;-65
2022/03/09 03:16:03;;;;;;;;;78.33;60.00;;;;;6.09;57.05;101771.75;5033090;28;49885;-65
2022/03/09 03:18:28;;;;;;;;;74.33;59.00;;;;;5.79;57.24;101726.63;5033393;28;49794;-65
2022/03/09 03:20:56;;;;;;;;;77.33;60.00;;;;;6.03;57.72;101771.41;5032765;28;50247;-65
2022/03/09 03:23:23;;;;;;;;;74.67;57.67;;;;;5.90;57.55;101751.59;5032619;28;49548;-66
2022/03/09 03:25:52;;;;;;;;;76.67;60.33;;;;;5.93;57.56;101762.16;5014385;28;49803;-66
2022/03/09 03:28:20;;;;;;;;;79.00;59.33;;;;;5.98;57.15;101770.22;5033271;28;50164;-65
2022/03/09 03:30:46;;;;;;;;;77.67;60.33;;;;;5.89;57.84;101756.69;5032822;28;50618;-65
2022/03/09 03:33:14;;;;;;;;;74.67;59.00;;;;;5.93;57.81;101758.66;5032994;28;49929;-64
2022/03/09 03:35:40;;;;;;;;;74.67;57.67;;;;;5.91;57.25;101761.19;5033009;28;49827;-65
2022/03/09 03:38:05;;;;;;;;;68.67;55.67;;;;;5.85;57.54;101739.97;5032629;28;50040;-65
2022/03/09 03:40:31;;;;;;;;;77.67;57.67;;;;;5.85;57.88;101739.97;5032588;28;50562;-65
2022/03/09 03:42:56;;;;;;;;;71.25;56.75;;;;;5.73;57.79;101727.16;5032726;28;49748;-65
2022/03/09 03:45:22;;;;;;;;;72.50;57.25;;;;;5.82;57.83;101746.72;5032874;28;49803;-65
2022/03/09 03:47:47;;;;;;;;;74.67;57.00;;;;;5.78;58.08;101729.09;5032723;28;49933;-64
2022/03/09 03:50:13;;;;;;;;;74.25;59.50;;;;;5.90;58.22;101748.06;5032655;28;49820;-65
2022/03/09 03:52:38;;;;;;;;;74.33;57.00;;;;;5.70;58.11;101728.72;5032278;28;49779;-64
2022/03/09 03:55:04;;;;;;;;;67.50;53.00;;;;;5.83;58.35;101753.72;5032554;28;49775;-65
2022/03/09 03:57:29;;;;;;;;;80.33;60.00;;;;;5.73;58.49;101745.41;5032678;28;49984;-64
2022/03/09 03:59:55;;;;;;;;;80.33;61.00;;;;;5.80;59.19;101756.19;5014360;28;50311;-64
2022/03/09 04:02:20;;;;;;;;;81.67;59.33;;;;;5.80;58.62;101761.38;5032542;28;49694;-64
2022/03/09 04:04:45;;;;;;;;;68.50;55.75;;;;;5.62;58.99;101740.41;5014696;28;49685;-65
2022/03/09 04:07:11;;;;;;;;;69.67;57.00;;;;;5.80;57.96;101762.28;5032215;28;49780;-65
2022/03/09 04:09:36;;;;;;;;;77.67;58.00;;;;;5.59;59.14;101732.41;5013744;28;50949;-65
2022/03/09 04:12:02;;;;;;;;;69.00;55.50;;;;;5.69;58.88;101763.34;5032278;28;49717;-65
2022/03/09 04:14:27;;;;;;;;;71.50;58.00;;;;;5.73;58.72;101768.84;5032163;28;49598;-65
2022/03/09 04:16:52;;;;;;;;;82.33;60.00;;;;;5.47;59.28;101735.22;5032308;28;49744;-65
2022/03/09 04:19:18;;;;;;;;;81.67;62.33;;;;;5.73;59.12;101770.56;5030771;28;49815;-65
2022/03/09 04:21:43;;;;;;;;;76.33;60.00;;;;;5.71;59.42;101777.41;5032102;28;49705;-64
2022/03/09 04:24:09;;;;;;;;;80.67;62.00;;;;;5.66;59.61;101771.00;5031913;28;50383;-64
2022/03/09 04:26:34;;;;;;;;;81.00;61.00;;;;;5.41;59.38;101725.38;5032210;28;49699;-64
2022/03/09 04:29:00;;;;;;;;;68.33;52.67;;;;;5.45;59.69;101737.72;5031886;28;50371;-65
2022/03/09 04:31:26;;;;;;;;;72.33;58.67;;;;;5.65;59.94;101767.50;5031942;28;49845;-64
2022/03/09 04:33:51;;;;;;;;;76.00;58.00;;;;;5.66;60.42;101768.41;5032033;28;49760;-63
2022/03/09 04:36:16;;;;;;;;;69.33;54.00;;;;;5.50;60.00;101737.09;5031965;28;49858;-64
2022/03/09 04:38:42;;;;;;;;;72.33;55.33;;;;;5.54;60.07;101742.56;5031568;28;49877;-65
2022/03/09 04:41:07;;;;;;;;;77.00;61.67;;;;;5.42;60.50;101734.06;5031954;28;49851;-64
2022/03/09 04:43:33;;;;;;;;;80.33;61.00;;;;;5.36;60.90;101721.59;5032059;28;49780;-65
2022/03/09 04:45:58;;;;;;;;;80.00;60.33;;;;;5.64;60.29;101767.44;5031984;28;49593;-64
2022/03/09 04:48:24;;;;;;;;;80.33;62.33;;;;;5.62;60.64;101769.97;5031489;28;49753;-64
2022/03/09 04:50:49;;;;;;;;;74.67;58.33;;;;;5.45;60.65;101750.75;5031454;28;49944;-65
2022/03/09 04:53:14;;;;;;;;;75.67;57.33;;;;;5.48;60.93;101757.84;5031472;28;49693;-65
2022/03/09 04:55:40;;;;;;;;;78.33;60.33;;;;;5.57;61.49;101779.19;5031874;28;49591;-65
2022/03/09 04:58:05;;;;;;;;;73.67;59.67;;;;;5.56;61.64;101777.41;5031362;28;49902;-64
2022/03/09 05:00:30;;;;;;;;;74.33;60.00;;;;;5.57;61.89;101788.72;5031855;28;49789;-65
2022/03/09 05:02:55;;;;;;;;;78.67;60.67;;;;;5.55;61.79;101791.25;5025016;28;49761;-64
2022/03/09 05:05:21;;;;;;;;;75.33;58.67;;;;;5.41;61.94;101759.22;5031569;28;49897;-65
2022/03/09 05:07:46;;;;;;;;;83.33;65.00;;;;;5.47;61.59;101767.34;5030873;28;49829;-65
2022/03/09 05:10:12;;;;;;;;;83.00;63.00;;;;;5.34;61.47;101757.06;5031283;28;49633;-65
2022/03/09 05:12:37;;;;;;;;;81.33;60.00;;;;;5.52;61.60;101795.41;5031512;28;49875;-64
2022/03/09 05:15:04;;;;;;;;;85.00;64.33;;;;;5.54;62.13;101791.16;5031680;28;49936;-65
2022/03/09 05:17:29;;;;;;;;;80.00;64.00;;;;;5.52;62.76;101804.09;5031119;28;50885;-65
2022/03/09 05:19:54;;;;;;;;;86.33;62.67;;;;;5.26;62.49;101760.03;5031218;28;49848;-65
2022/03/09 05:22:20;;;;;;;;;79.67;62.00;;;;;5.44;63.90;101810.56;5031120;28;49693;-65
2022/03/09 05:24:45;;;;;;;;;70.67;57.00;;;;;5.20;63.49;101763.16;5031206;28;50027;-65
2022/03/09 05:27:10;;;;;;;;;77.00;58.00;;;;;5.42;62.68;101812.19;5030671;28;51807;-65
2022/03/09 05:29:36;;;;;;;;;82.33;62.67;;;;;5.38;62.46;101794.56;5030976;28;49674;-65
2022/03/09 05:32:01;;;;;;;;;79.33;60.33;;;;;5.38;62.28;101812.81;5030849;28;49930;-65
2022/03/09 05:34:27;;;;;;;;;77.00;59.33;;;;;5.24;61.49;101785.09;5031282;28;49738;-65
2022/03/09 05:36:53;;;;;;;;;83.00;61.00;;;;;5.37;61.44;101827.53;5030907;28;52179;-65
2022/03/09 05:39:19;;;;;;;;;81.00;62.00;;;;;5.31;61.07;101823.69;5030883;28;50327;-65
2022/03/09 05:41:44;;;;;;;;;77.33;61.00;;;;;5.33;61.07;101824.69;5030957;28;49966;-65
2022/03/09 05:44:09;;;;;;;;;86.67;64.00;;;;;5.27;61.16;101829.50;5031016;28;49905;-65
2022/03/09 05:46:35;;;;;;;;;83.00;63.67;;;;;5.13;61.32;101820.91;5030577;28;50681;-64
2022/03/09 05:49:01;;;;;;;;;85.67;65.00;;;;;5.30;61.28;101842.69;5030656;28;49682;-64
2022/03/09 05:51:27;;;;;;;;;77.00;60.00;;;;;5.12;60.98;101820.00;5030940;28;49760;-65
2022/03/09 05:53:52;;;;;;;;;75.33;60.67;;;;;5.26;61.07;101838.13;5030787;28;49923;-65
2022/03/09 05:56:17;;;;;;;;;77.67;61.00;;;;;5.08;61.11;101817.09;5030559;28;50526;-64
2022/03/09 05:58:43;;;;;;;;;78.67;62.67;;;;;5.28;61.38;101849.53;5030628;28;49741;-64
2022/03/09 06:01:08;;;;;;;;;72.00;57.33;;;;;5.09;61.13;101816.28;5030565;28;50223;-64
2022/03/09 06:03:33;;;;;;;;;80.67;63.67;;;;;5.18;61.68;101824.66;5030631;28;49853;-64
2022/03/09 06:05:59;;;;;;;;;84.67;63.00;;;;;5.37;62.56;101850.06;5030299;28;50388;-64
2022/03/09 06:08:24;;;;;;;;;74.33;56.33;;;;;5.11;62.75;101804.25;5030257;28;49592;-64
2022/03/09 06:10:51;;;;;;;;;75.33;59.67;;;;;5.35;62.30;101854.28;5030474;28;49631;-64
2022/03/09 06:13:17;;;;;;;;;80.33;58.67;;;;;5.35;62.43;101849.97;5030616;28;49734;-64
2022/03/09 06:15:42;;;;;;;;;79.00;62.00;;;;;5.09;63.37;101803.28;5030375;28;49926;-64
2022/03/09 06:18:07;;;;;;;;;77.00;61.00;;;;;4.89;63.43;101769.16;5030315;28;49646;-66
2022/03/09 06:20:33;;;;;;;;;70.00;55.67;;;;;5.42;63.94;101849.56;5030250;28;49739;-65
2022/03/09 06:22:58;;;;;;;;;73.67;56.67;;;;;4.85;63.59;101746.38;5030272;28;49824;-66
2022/03/09 06:25:24;;;;;;;;;77.00;58.00;;;;;5.34;63.88;101831.69;5030001;28;49801;-66
2022/03/09 06:27:52;;;;;;;;;76.67;58.00;;;;;5.54;63.68;101857.16;5030118;28;49946;-64
2022/03/09 06:30:18;;;;;;;;;73.00;57.00;;;;;5.37;63.83;101829.25;5030378;28;49681;-67
2022/03/09 06:32:45;;;;;;;;;68.25;55.50;;;;;5.57;64.03;101851.22;5030351;28;49683;-67
2022/03/09 06:35:13;;;;;;;;;63.00;53.00;;;;;5.64;64.18;101863.81;5029945;28;50369;-66
2022/03/09 06:37:38;;;;;;;;;63.00;51.25;;;;;5.57;64.79;101851.22;5029897;28;50007;-63
2022/03/09 06:40:05;;;;;;;;;64.75;48.75;;;;;5.71;65.05;101871.19;5030090;28;49679;-63
2022/03/09 06:42:30;;;;;;;;;68.00;53.50;;;;;5.73;65.13;101878.28;5030919;28;49980;-62
2022/03/09 06:44:57;;;;;;;;;68.00;50.50;;;;;5.52;65.29;101826.66;5033516;28;49761;-64
2022/03/09 06:47:22;;;;;;;;;64.75;51.50;;;;;5.81;65.30;101870.91;5033607;28;49855;-62
2022/03/09 06:49:48;;;;;;;;;66.00;51.75;;;;;5.80;65.68;101873.44;5033778;28;49845;-63
2022/03/09 06:52:14;;;;;;;;;65.75;50.50;;;;;5.89;65.43;101876.56;5033215;28;49753;-63
2022/03/09 06:54:39;;;;;;;;;63.25;51.00;;;;;5.86;66.14;101864.22;5033353;28;50533;-63
2022/03/09 06:57:05;;;;;;;;;63.75;48.50;;;;;5.98;65.30;101879.69;5033310;28;49787;-63
2022/03/09 06:59:30;;;;;;;;;59.75;48.25;;;;;6.03;65.95;101879.16;5033359;28;49908;-63
2022/03/09 07:01:55;;;;;;;;;62.50;53.00;;;;;5.88;66.83;101843.47;5033436;28;49697;-63
2022/03/09 07:04:21;;;;;;;;;59.25;50.75;;;;;6.09;66.37;101881.25;5033153;28;54392;-63
2022/03/09 07:06:46;;;;;;;;;61.50;49.25;;;;;5.96;66.21;101843.13;5033396;28;50326;-63
2022/03/09 07:09:12;;;;;;;;;61.25;50.75;;;;;6.21;65.98;101889.75;5033245;28;49792;-63
2022/03/09 07:11:37;;;;;;;;;64.25;49.75;;;;;6.28;66.61;101888.38;5033504;28;50037;-63
2022/03/09 07:14:03;;;;;;;;;64.50;49.75;;;;;6.38;67.38;101898.50;5032988;28;50460;-64
2022/03/09 07:16:28;;;;;;;;;59.75;49.00;;;;;6.36;67.23;101876.63;5032451;28;49972;-64
2022/03/09 07:18:54;;;;;;;;;61.00;49.50;;;;;6.60;67.39;101891.06;5031407;28;50764;-66
2022/03/09 07:21:19;;;;;;;;;62.75;49.75;;;;;6.84;66.04;101903.63;5029293;28;49997;-66
2022/03/09 07:23:45;;;;;;;;;58.50;49.25;;;;;6.81;66.22;101879.97;5032008;28;51139;-66
2022/03/09 07:26:10;;;;;;;;;59.50;48.25;;;;;6.99;66.38;101887.91;5032956;28;49823;-64
2022/03/09 07:28:36;;;;;;;;;61.75;49.00;;;;;7.08;66.16;101877.94;5032993;28;49978;-67
2022/03/09 07:31:01;;;;;;;;;67.75;51.00;;;;;7.43;65.66;101922.47;5032847;28;49750;-65
2022/03/09 07:33:26;;;;;;;;;58.00;48.75;;;;;7.47;65.29;101907.84;5036522;28;49757;-68
2022/03/09 07:35:52;;;;;;;;;58.00;43.75;;;;;7.65;65.49;101927.06;5032570;28;49984;-65
2022/03/09 07:38:18;;;;;;;;;52.00;45.75;;;;;7.76;65.04;101925.00;5032774;28;49969;-65
2022/03/09 07:40:44;;;;;;;;;70.00;51.50;;;;;7.77;64.32;101921.56;5026326;28;49979;-66
2022/03/09 07:43:10;;;;;;;;;54.00;45.50;;;;;7.94;64.29;101928.56;5032480;28;49873;-66
2022/03/09 07:45:35;;;;;;;;;60.75;46.75;;;;;8.03;64.60;101922.88;5032768;28;49947;-64
2022/03/09 07:48:01;;;;;;;;;69.00;53.00;;;;;8.15;64.02;101926.09;5032507;28;49657;-67
2022/03/09 07:50:26;;;;;;;;;58.75;47.75;;;;;7.96;64.64;101873.72;5032669;28;50063;-65
2022/03/09 07:52:51;;;;;;;;;51.25;41.00;;;;;8.26;63.91;101924.88;5031802;28;49888;-66
2022/03/09 07:55:18;;;;;;;;;60.25;48.75;;;;;8.31;64.07;101915.56;5032350;28;49828;-66
2022/03/09 07:57:44;;;;;;;;;56.75;45.50;;;;;8.44;64.00;101914.44;5032542;28;49679;-66
2022/03/09 08:00:10;;;;;;;;;49.50;42.00;;;;;8.51;64.39;101913.94;5032696;28;49768;-66
2022/03/09 08:02:35;;;;;;;;;48.75;40.75;;;;;8.42;63.95;101889.94;5032392;28;50253;-65
2022/03/09 08:05:03;;;;;;;;;11.75;8.00;;;;;8.83;64.60;101932.84;5032463;28;49695;-66
2022/03/09 08:07:28;;;;;;;;;47.50;40.75;;;;;8.87;63.70;101921.69;5032000;28;49778;-66
2022/03/09 08:09:54;;;;;;;;;55.25;44.50;;;;;8.68;64.29;101867.56;5032411;28;49653;-67
2022/03/09 08:12:19;;;;;;;;;51.25;42.75;;;;;8.96;63.99;101915.97;5032233;28;49893;-66
2022/03/09 08:14:45;;;;;;;;;45.75;40.75;;;;;8.87;64.19;101879.78;5032144;28;49648;-68
2022/03/09 08:17:10;;;;;;;;;42.25;38.00;;;;;9.20;64.48;101922.34;5032386;28;50198;-68
2022/03/09 08:19:35;;;;;;;;;49.25;41.50;;;;;9.21;63.34;101907.50;5032447;28;49817;-67
2022/03/09 08:22:02;;;;;;;;;44.75;40.00;;;;;9.53;63.50;101941.25;5031818;28;49982;-70
2022/03/09 08:24:27;;;;;;;;;52.25;39.25;;;;;9.65;63.18;101938.28;5032081;28;49734;-69
2022/03/09 08:26:53;;;;;;;;;51.75;39.50;;;;;9.78;62.90;101940.63;5031692;28;49846;-69
2022/03/09 08:29:19;;;;;;;;;42.00;38.00;;;;;9.74;62.62;101925.56;5032041;28;49880;-69
2022/03/09 08:31:44;;;;;;;;;46.25;36.75;;;;;9.69;62.90;101907.03;5031808;28;49701;-69
2022/03/09 08:34:09;;;;;;;;;37.50;32.75;;;;;10.02;63.27;101941.63;5032106;28;49718;-69
2022/03/09 08:36:35;;;;;;;;;43.50;38.25;;;;;9.32;63.25;101814.53;5032014;28;49812;-69
2022/03/09 08:39:01;;;;;;;;;29.00;26.50;;;;;10.11;63.03;101934.97;5031836;28;49900;-69
2022/03/09 08:41:28;;;;;;;;;37.75;33.75;;;;;10.00;63.75;101926.66;5031683;28;50330;-69
2022/03/09 08:43:54;;;;;;;;;35.25;34.25;;;;;10.20;62.86;101931.00;5031698;28;50098;-68
2022/03/09 08:46:19;;;;;;;;;28.75;24.75;;;;;10.35;62.87;101948.25;5031675;28;50175;-69
2022/03/09 08:48:45;;;;;;;;;31.25;25.50;;;;;10.36;62.93;101947.41;5031906;28;49633;-69
2022/03/09 08:51:11;;;;;;;;;30.75;25.00;;;;;10.39;63.07;101929.16;5031569;28;49638;-68
2022/03/09 08:53:36;;;;;;;;;27.25;27.00;;;;;10.64;62.61;101952.94;5031403;28;49785;-68
2022/03/09 08:56:02;;;;;;;;;25.50;24.75;;;;;10.74;62.68;101946.31;5031768;28;49787;-69
2022/03/09 08:58:28;;;;;;;;;36.25;30.50;;;;;10.76;62.29;101950.78;5031713;28;49954;-69
2022/03/09 09:00:53;;;;;;;;;33.00;29.75;;;;;10.63;61.91;101922.25;5031520;28;50100;-68
2022/03/09 09:03:18;;;;;;;;;30.50;28.25;;;;;10.85;61.93;101942.38;5031477;28;49744;-68
2022/03/09 09:05:44;;;;;;;;;30.50;27.75;;;;;10.83;61.22;101928.28;5030650;28;49836;-68
2022/03/09 09:08:09;;;;;;;;;27.50;24.75;;;;;10.91;61.29;101936.47;5031509;28;50027;-69
2022/03/09 09:10:35;;;;;;;;;26.50;23.50;;;;;11.03;61.30;101955.31;5031218;28;49761;-68
2022/03/09 09:13:01;;;;;;;;;30.25;27.50;;;;;11.05;61.02;101957.16;5031396;28;49633;-68
2022/03/09 09:15:28;;;;;;;;;27.50;27.50;;;;;11.04;61.23;101952.75;5031430;28;50213;-68
2022/03/09 09:17:58;;;;;;;;;36.50;32.25;;;;;11.17;61.20;101954.09;5031517;28;49867;-68
2022/03/09 09:20:25;;;;;;;;;26.00;23.75;;;;;10.95;61.32;101930.47;5031134;28;49952;-68
2022/03/09 09:22:52;;;;;;;;;23.50;23.00;;;;;11.20;61.04;101953.31;5030849;28;49721;-68
2022/03/09 09:25:18;;;;;;;;;26.75;24.25;;;;;11.34;60.73;101947.72;5031169;28;49994;-69
2022/03/09 09:27:43;;;;;;;;;24.00;24.00;;;;;11.39;60.24;101924.25;5031177;28;49838;-68
2022/03/09 09:30:09;;;;;;;;;25.75;22.75;;;;;11.55;60.04;101934.44;5031013;28;50727;-69
2022/03/09 09:32:34;;;;;;;;;26.75;24.75;;;;;11.56;60.31;101933.59;5031129;28;49884;-69
2022/03/09 09:35:00;;;;;;;;;32.25;26.75;;;;;11.62;60.59;101936.47;5031300;28;49830;-69
2022/03/09 09:37:25;;;;;;;;;29.75;26.50;;;;;11.67;60.08;101931.34;5030871;28;50181;-69
2022/03/09 09:39:51;;;;;;;;;26.25;24.25;;;;;11.29;60.09;101870.44;5030708;28;50626;-69
2022/03/09 09:42:19;;;;;;;;;31.00;25.00;;;;;11.65;59.96;101910.25;5030587;28;49814;-68
2022/03/09 09:44:45;;;;;;;;;28.00;26.50;;;;;11.50;59.35;101872.94;5030745;28;49875;-68
2022/03/09 09:47:14;;;;;;;;;30.00;21.25;;;;;11.76;59.37;101894.84;5013122;28;49891;-68
2022/03/09 09:49:40;;;;;;;;;17.00;13.50;;;;;11.87;59.28;101897.84;5030735;28;50804;-68
2022/03/09 09:52:07;;;;;;;;;19.75;19.00;;;;;11.46;59.17;101837.72;5012559;28;49879;-68
2022/03/09 09:54:33;;;;;;;;;26.75;25.50;;;;;12.01;59.65;101933.44;5012134;28;49938;-68
2022/03/09 09:56:59;;;;;;;;;19.50;17.50;;;;;12.13;59.55;101920.69;5030717;28;50428;-68
2022/03/09 09:59:25;;;;;;;;;19.50;17.75;;;;;11.79;59.24;101844.09;5012435;28;51802;-68
2022/03/09 10:01:50;;;;;;;;;20.75;18.75;;;;;11.91;59.03;101863.81;5012480;28;50155;-68
2022/03/09 10:04:16;;;;;;;;;23.25;20.25;;;;;10.68;59.00;101639.69;5030729;28;49768;-68
2022/03/09 10:06:41;;;;;;;;;18.75;17.25;;;;;12.24;58.46;101906.13;5030482;28;49765;-69
2022/03/09 10:09:09;;;;;;;;;18.00;16.50;;;;;12.12;58.24;101839.03;5030182;28;49767;-69
2022/03/09 10:11:46;;;;;;;;;16.25;14.75;;;;;12.66;58.47;101905.69;5030543;28;49934;-69
2022/03/09 10:14:12;;;;;;;;;20.50;20.00;;;;;12.58;58.15;101887.03;5030356;28;49717;-68
2022/03/09 10:16:38;;;;;;;;;17.75;16.25;;;;;12.81;57.88;101911.41;5029899;28;50032;-68
2022/03/09 10:19:04;;;;;;;;;15.75;13.50;;;;;12.77;57.87;101913.91;5030187;28;50668;-68
2022/03/09 10:21:35;;;;;;;;;19.00;16.50;;;;;12.78;57.35;101889.34;5030272;28;49935;-68
2022/03/09 10:24:09;;;;;;;;;12.50;11.75;;;;;12.80;57.26;101908.72;5030421;28;49654;-68
2022/03/09 10:26:34;;;;;;;;;17.75;17.75;;;;;12.73;57.51;101907.66;5030447;28;49992;-69
2022/03/09 10:29:06;;;;;;;;;15.00;14.00;;;;;12.62;57.88;101914.34;5030198;28;49730;-69
2022/03/09 10:31:35;;;;;;;;;16.75;16.25;;;;;12.53;58.19;101914.94;5030168;28;49840;-69
2022/03/09 10:34:23;;;;;;;;;16.00;16.00;;;;;12.36;58.24;101895.09;5030154;28;49917;-68
2022/03/09 10:36:57;;;;;;;;;16.75;14.75;;;;;12.39;58.84;101903.09;5030005;28;49878;-68
2022/03/09 10:39:27;;;;;;;;;15.50;14.75;;;;;12.29;59.01;101904.53;5030081;28;50399;-68
2022/03/09 10:41:53;;;;;;;;;15.00;14.00;;;;;12.26;59.18;101908.84;5030256;28;49705;-67
2022/03/09 10:44:19;;;;;;;;;16.25;15.00;;;;;11.73;59.64;101823.72;5030197;28;50089;-68
2022/03/09 10:46:52;;;;;;;;;16.00;13.50;;;;;11.82;59.39;101854.72;5012772;28;49979;-67
2022/03/09 10:49:19;;;;;;;;;19.00;16.00;;;;;12.04;59.44;101905.47;5029910;28;50292;-67
2022/03/09 10:51:50;;;;;;;;;9.00;9.00;;;;;11.92;59.60;101894.56;5029631;28;49625;-68
2022/03/09 10:54:22;;;;;;;;;15.25;13.25;;;;;11.94;60.23;101907.75;5029798;28;49800;-67
2022/03/09 10:56:48;;;;;;;;;16.25;13.75;;;;;11.79;60.20;101881.81;5030089;28;49788;-67
2022/03/09 10:59:24;;;;;;;;;22.50;15.50;;;;;11.85;60.31;101908.34;5011664;28;50576;-68
2022/03/09 11:02:09;;;;;;;;;17.75;14.75;;;;;11.62;60.28;101875.97;5028846;28;49658;-67
2022/03/09 11:04:36;;;;;;;;;15.25;15.25;;;;;11.47;60.29;101857.91;5029631;28;49738;-67
2022/03/09 11:07:03;;;;;;;;;17.25;15.75;;;;;11.81;60.86;101910.81;5029605;28;49587;-68
2022/03/09 11:09:29;;;;;;;;;14.25;13.00;;;;;11.78;60.85;101873.88;5029535;28;50603;-68
2022/03/09 11:11:55;;;;;;;;;17.75;16.00;;;;;11.97;59.97;101887.72;5023278;28;49721;-67